Terminal Aerodrome Forecast
Issued by NWS

Home | Current Version | Previous Version | Text Only | Print | Product List | Glossary On
Versions: 1 2 3 4 5 6 7 8 9 10 11 12 13 14 15 16 17 18 19 20 21 22 23 24 25 26 27 28 29 30 31
000
FTUS43 KLSX 202000 AAB
TAFSUS
TAF AMD
KSUS 202033Z 2021/2118 15003KT P6SM OVC035
     FM202100 17003KT P6SM BKN020 OVC050
     FM210200 15005KT P6SM OVC025=

USA.gov is the U.S. government's official web portal to all federal, state and local government web resources and services.